»·PEaware :: N149CD KVNY-KDAG

N149CD :: KVNY-KDAG

FLIGHT INFORMATION

Flight Status: Arrived
Operator: Privately registered:
United States
More flights under this callsign
Pilot: Nathan E. (30132)
Aircraft: CESSNA 172 SKYHAWK
(C172)
More flights by this aircraft type
Origin: KVNY Van Nuys
United States
Destination: KDAG Barstow-Daggett
United States
More flights between these airports :: More routes between these airports
Route: +NUAL1 PMD V12 BASAL
File this flight plan on PilotEdge
Remarks:
Altitude:
(Current/Filed)
7,000ft
Speed:
(Current/Filed)
110kts
Departed: 29-Aug-20 07:33 PM
Arrived: 29-Aug-20 08:47 PM
Distance/Time
Traveled:
93nm/1:14
Distance/Time
To Go:
Arrived

Flight Plot

Page will automatically refresh every two minutes.

Flight plan parsing failed; only flown route is shown


Map Options




Map Legend


Flown Route
Filed Route
Departure Airport
Arrival Airport
Navaid (VOR, NDB)
Fix

Horizontal Profiles

Position Reports

Time Latitude Longitude Heading Altitude Ground
Speed
29-Aug-20 19:16 34.215503 -118.498557 2 806ft 0kts
29-Aug-20 19:17 34.215503 -118.498557 2 806ft 0kts
29-Aug-20 19:18 34.215503 -118.498557 2 806ft 0kts
29-Aug-20 19:19 34.215503 -118.498557 2 806ft 0kts
29-Aug-20 19:20 34.215503 -118.498557 2 806ft 0kts
29-Aug-20 19:21 34.215503 -118.498557 2 806ft 0kts
29-Aug-20 19:22 34.215503 -118.498557 2 806ft 0kts
29-Aug-20 19:23 34.215503 -118.498557 2 806ft 0kts
29-Aug-20 19:24 34.215503 -118.498557 2 806ft 0kts
29-Aug-20 19:25 34.215503 -118.498557 2 806ft 0kts
29-Aug-20 19:26 34.215503 -118.498557 2 806ft 0kts
29-Aug-20 19:27 34.216423 -118.497740 46 806ft 13kts
29-Aug-20 19:28 34.217301 -118.493635 99 806ft 14kts
29-Aug-20 19:29 34.219040 -118.492301 87 806ft 3kts
29-Aug-20 19:30 34.219031 -118.492183 99 806ft 0kts
29-Aug-20 19:31 34.219031 -118.492183 99 806ft 0kts
29-Aug-20 19:32 34.216374 -118.491000 175 806ft 55kts
29-Aug-20 19:33 34.196748 -118.489104 174 1457ft 72kts
29-Aug-20 19:34 34.179974 -118.478978 125 2262ft 75kts
29-Aug-20 19:35 34.169213 -118.457354 125 3025ft 76kts
29-Aug-20 19:36 34.158388 -118.435108 125 3756ft 77kts
29-Aug-20 19:37 34.147581 -118.412494 124 4449ft 78kts
29-Aug-20 19:38 34.136812 -118.389389 124 5109ft 79kts
29-Aug-20 19:39 34.149981 -118.373521 1 5722ft 90kts
29-Aug-20 19:40 34.175309 -118.372431 1 6316ft 91kts
29-Aug-20 19:41 34.200776 -118.371413 1 6875ft 92kts
29-Aug-20 19:42 34.226532 -118.370425 1 7404ft 93kts
29-Aug-20 19:43 34.252399 -118.366825 7 7915ft 94kts
29-Aug-20 19:44 34.278626 -118.362560 7 8408ft 94kts
29-Aug-20 19:45 34.304807 -118.358248 7 8873ft 95kts
29-Aug-20 19:46 34.334150 -118.353368 8 9017ft 118kts
29-Aug-20 19:47 34.366455 -118.347938 8 9025ft 118kts
29-Aug-20 19:48 34.399085 -118.342506 8 9034ft 118kts
29-Aug-20 19:49 34.431727 -118.337073 8 9034ft 119kts
29-Aug-20 19:50 34.463080 -118.327493 45 9033ft 117kts
29-Aug-20 19:51 34.484525 -118.297595 53 9031ft 117kts
29-Aug-20 19:52 34.504869 -118.266146 55 9029ft 118kts
29-Aug-20 19:53 34.524997 -118.234253 55 9028ft 119kts
29-Aug-20 19:54 34.545168 -118.202064 55 9027ft 120kts
29-Aug-20 19:55 34.565547 -118.169463 54 8999ft 120kts
29-Aug-20 19:56 34.585728 -118.137151 55 8999ft 119kts
29-Aug-20 19:58 34.605967 -118.104704 55 9000ft 121kts
29-Aug-20 19:59 34.626290 -118.072088 55 8999ft 120kts
29-Aug-20 20:00 34.634159 -118.033822 85 8996ft 117kts
29-Aug-20 20:01 34.638893 -117.994643 87 8993ft 117kts
29-Aug-20 20:02 34.643309 -117.955311 87 8988ft 117kts
29-Aug-20 20:03 34.647640 -117.915902 87 8984ft 117kts
29-Aug-20 20:04 34.651934 -117.876566 87 8978ft 117kts
29-Aug-20 20:05 34.656200 -117.837253 87 8973ft 117kts
29-Aug-20 20:06 34.660463 -117.797882 87 8979ft 117kts
29-Aug-20 20:07 34.664719 -117.758457 87 8986ft 116kts
29-Aug-20 20:08 34.668920 -117.719336 87 8993ft 116kts
29-Aug-20 20:09 34.673118 -117.680108 87 9000ft 116kts
29-Aug-20 20:10 34.677278 -117.641184 88 9009ft 115kts
29-Aug-20 20:11 34.681395 -117.602463 88 9014ft 115kts
29-Aug-20 20:12 34.685478 -117.563895 88 9019ft 115kts
29-Aug-20 20:13 34.689558 -117.525307 88 9017ft 115kts
29-Aug-20 20:13 34.692979 -117.492927 88 9018ft 116kts
29-Aug-20 20:15 34.697748 -117.447540 88 9018ft 115kts
29-Aug-20 20:15 34.701120 -117.415414 89 9019ft 115kts
29-Aug-20 20:16 34.705139 -117.376596 85 9019ft 115kts
29-Aug-20 20:18 34.709874 -117.331489 86 9018ft 114kts
29-Aug-20 20:18 34.713205 -117.299479 86 9018ft 114kts
29-Aug-20 20:19 34.717189 -117.261077 86 9031ft 113kts
29-Aug-20 20:21 34.721754 -117.216924 86 9091ft 114kts
29-Aug-20 20:21 34.725060 -117.184841 86 9089ft 114kts
29-Aug-20 20:22 34.729024 -117.146267 86 9087ft 114kts
29-Aug-20 20:23 34.732976 -117.107724 86 9082ft 115kts
29-Aug-20 20:24 34.736923 -117.069120 87 9067ft 116kts
29-Aug-20 20:25 34.746327 -117.029346 71 8783ft 132kts
29-Aug-20 20:26 34.760743 -116.987670 72 8290ft 135kts
29-Aug-20 20:27 34.775087 -116.946182 73 8018ft 126kts
29-Aug-20 20:28 34.788593 -116.906961 74 8008ft 126kts
29-Aug-20 20:29 34.802268 -116.867207 74 7985ft 129kts
29-Aug-20 20:30 34.817028 -116.824084 73 7507ft 140kts
29-Aug-20 20:31 34.831514 -116.782012 74 7301ft 128kts
29-Aug-20 20:32 34.845226 -116.741972 74 7302ft 128kts
29-Aug-20 20:33 34.858930 -116.701953 74 7302ft 128kts
29-Aug-20 20:34 34.872678 -116.661751 74 7302ft 128kts
29-Aug-20 20:35 34.886407 -116.621548 74 7302ft 128kts
29-Aug-20 20:36 34.900034 -116.581596 73 7303ft 127kts
29-Aug-20 20:37 34.922137 -116.551365 345 7163ft 136kts
29-Aug-20 20:38 34.949670 -116.578994 311 6685ft 129kts
29-Aug-20 20:39 34.968280 -116.611071 251 6198ft 111kts
29-Aug-20 20:40 34.953392 -116.642549 228 5715ft 106kts
29-Aug-20 20:41 34.934921 -116.670448 227 5230ft 103kts
29-Aug-20 20:42 34.916851 -116.697150 227 4744ft 101kts
29-Aug-20 20:43 34.899127 -116.723285 227 4260ft 99kts
29-Aug-20 20:44 34.883771 -116.746013 225 3666ft 79kts
29-Aug-20 20:45 34.869994 -116.766115 228 2394ft 73kts
29-Aug-20 20:46 34.859964 -116.780887 230 1910ft 38kts
29-Aug-20 20:47 34.858096 -116.785880 317 1913ft 15kts
29-Aug-20 20:48 34.858416 -116.786627 233 1913ft 0kts

Navigation Log

Ident Type
Flight plan parsing failed, navigation log unavailable